sensor_id;sensor_type;location;lat;lon;timestamp;pressure;altitude;pressure_sealevel;temperature;humidity
65359;BME280;52491;45.900;6.346;2023-02-11T00:00:12;95525.44;;;22.69;19.58
65359;BME280;52491;45.900;6.346;2023-02-11T00:02:38;95509.69;;;22.68;19.59
65359;BME280;52491;45.900;6.346;2023-02-11T00:05:04;95508.69;;;22.69;19.46
65359;BME280;52491;45.900;6.346;2023-02-11T00:07:31;95508.88;;;22.67;19.52
65359;BME280;52491;45.900;6.346;2023-02-11T00:09:56;95501.94;;;22.66;19.59
65359;BME280;52491;45.900;6.346;2023-02-11T00:12:22;95507.47;;;22.65;19.41
65359;BME280;52491;45.900;6.346;2023-02-11T00:14:48;95498.69;;;22.64;19.42
65359;BME280;52491;45.900;6.346;2023-02-11T00:17:13;95498.88;;;22.63;19.34
65359;BME280;52491;45.900;6.346;2023-02-11T00:19:39;95499.91;;;22.62;19.41
65359;BME280;52491;45.900;6.346;2023-02-11T00:22:05;95501.53;;;22.63;19.37
65359;BME280;52491;45.900;6.346;2023-02-11T00:24:31;95507.88;;;22.62;19.37
65359;BME280;52491;45.900;6.346;2023-02-11T00:26:56;95495.63;;;22.61;19.41
65359;BME280;52491;45.900;6.346;2023-02-11T00:29:22;95500.94;;;22.61;19.29
65359;BME280;52491;45.900;6.346;2023-02-11T00:31:48;95489.28;;;22.62;19.20
65359;BME280;52491;45.900;6.346;2023-02-11T00:34:14;95493.19;;;22.59;19.23
65359;BME280;52491;45.900;6.346;2023-02-11T00:36:39;95495.03;;;22.59;19.38
65359;BME280;52491;45.900;6.346;2023-02-11T00:39:05;95486.25;;;22.58;19.35
65359;BME280;52491;45.900;6.346;2023-02-11T00:41:31;95492.78;;;22.55;19.31
65359;BME280;52491;45.900;6.346;2023-02-11T00:43:57;95498.91;;;22.56;19.31
65359;BME280;52491;45.900;6.346;2023-02-11T00:46:23;95495.44;;;22.55;19.25
65359;BME280;52491;45.900;6.346;2023-02-11T00:48:49;95497.28;;;22.55;19.16
65359;BME280;52491;45.900;6.346;2023-02-11T00:51:16;95490.31;;;22.54;19.10
65359;BME280;52491;45.900;6.346;2023-02-11T00:53:42;95490.56;;;22.52;19.20
65359;BME280;52491;45.900;6.346;2023-02-11T00:56:08;95490.75;;;22.51;19.21
65359;BME280;52491;45.900;6.346;2023-02-11T00:58:34;95484.63;;;22.50;19.22
65359;BME280;52491;45.900;6.346;2023-02-11T01:01:00;95495.25;;;22.50;19.17
65359;BME280;52491;45.900;6.346;2023-02-11T01:03:27;95490.75;;;22.51;19.16
65359;BME280;52491;45.900;6.346;2023-02-11T01:05:52;95484.63;;;22.50;19.18
65359;BME280;52491;45.900;6.346;2023-02-11T01:08:18;95483.81;;;22.50;19.09
65359;BME280;52491;45.900;6.346;2023-02-11T01:10:44;95474.81;;;22.51;19.11
65359;BME280;52491;45.900;6.346;2023-02-11T01:13:09;95469.50;;;22.51;19.03
65359;BME280;52491;45.900;6.346;2023-02-11T01:15:35;95475.84;;;22.50;18.98
65359;BME280;52491;45.900;6.346;2023-02-11T01:18:01;95473.19;;;22.50;19.04
65359;BME280;52491;45.900;6.346;2023-02-11T01:20:27;95472.56;;;22.48;18.94
65359;BME280;52491;45.900;6.346;2023-02-11T01:22:54;95460.91;;;22.49;18.99
65359;BME280;52491;45.900;6.346;2023-02-11T01:25:19;95466.03;;;22.50;19.17
65359;BME280;52491;45.900;6.346;2023-02-11T01:27:45;95471.34;;;22.50;18.99
65359;BME280;52491;45.900;6.346;2023-02-11T01:30:12;95468.69;;;22.50;18.98
65359;BME280;52491;45.900;6.346;2023-02-11T01:32:39;95473.19;;;22.50;18.95
65359;BME280;52491;45.900;6.346;2023-02-11T01:35:05;95469.50;;;22.51;18.74
65359;BME280;52491;45.900;6.346;2023-02-11T01:37:34;95457.00;;;22.51;18.88
65359;BME280;52491;45.900;6.346;2023-02-11T01:40:02;95456.44;;;22.49;19.05
65359;BME280;52491;45.900;6.346;2023-02-11T01:42:28;95454.78;;;22.48;18.88
65359;BME280;52491;45.900;6.346;2023-02-11T01:44:54;95452.13;;;22.48;18.90
65359;BME280;52491;45.900;6.346;2023-02-11T01:47:21;95452.94;;;22.49;18.92
65359;BME280;52491;45.900;6.346;2023-02-11T01:49:56;95443.72;;;22.51;18.76
65359;BME280;52491;45.900;6.346;2023-02-11T01:52:31;95443.72;;;22.51;18.91
65359;BME280;52491;45.900;6.346;2023-02-11T01:55:01;95439.44;;;22.50;18.87
65359;BME280;52491;45.900;6.346;2023-02-11T01:57:59;95438.84;;;22.48;18.86
65359;BME280;52491;45.900;6.346;2023-02-11T02:00:35;95436.78;;;22.50;18.98
65359;BME280;52491;45.900;6.346;2023-02-11T02:03:12;95437.84;;;22.49;18.78
65359;BME280;52491;45.900;6.346;2023-02-11T02:05:45;95429.84;;;22.49;18.75
65359;BME280;52491;45.900;6.346;2023-02-11T02:08:20;95428.22;;;22.48;18.82
65359;BME280;52491;45.900;6.346;2023-02-11T02:10:50;95421.28;;;22.47;19.07
65359;BME280;52491;45.900;6.346;2023-02-11T02:13:19;95426.59;;;22.47;18.96
65359;BME280;52491;45.900;6.346;2023-02-11T02:15:55;95421.88;;;22.49;18.66
65359;BME280;52491;45.900;6.346;2023-02-11T02:18:40;95429.03;;;22.49;18.69
65359;BME280;52491;45.900;6.346;2023-02-11T02:29:18;95422.13;;;22.41;19.02
65359;BME280;52491;45.900;6.346;2023-02-11T02:32:25;95421.91;;;22.43;18.95
65359;BME280;52491;45.900;6.346;2023-02-11T02:37:40;95432.34;;;22.44;18.98
65359;BME280;52491;45.900;6.346;2023-02-11T02:40:14;95428.03;;;22.43;18.83
65359;BME280;52491;45.900;6.346;2023-02-11T02:42:42;95427.22;;;22.43;18.71
65359;BME280;52491;45.900;6.346;2023-02-11T02:45:10;95425.38;;;22.43;18.78
65359;BME280;52491;45.900;6.346;2023-02-11T02:47:36;95423.97;;;22.41;18.68
65359;BME280;52491;45.900;6.346;2023-02-11T02:50:03;95419.47;;;22.41;18.85
65359;BME280;52491;45.900;6.346;2023-02-11T02:55:32;95423.75;;;22.42;18.79
65359;BME280;52491;45.900;6.346;2023-02-11T03:01:07;95421.31;;;22.41;18.72
65359;BME280;52491;45.900;6.346;2023-02-11T03:04:12;95419.34;;;22.29;18.95
65359;BME280;52491;45.900;6.346;2023-02-11T03:06:59;95417.66;;;22.35;18.84
65359;BME280;52491;45.900;6.346;2023-02-11T03:09:39;95415.59;;;22.37;18.75
65359;BME280;52491;45.900;6.346;2023-02-11T03:12:08;95416.63;;;22.36;18.71
65359;BME280;52491;45.900;6.346;2023-02-11T03:14:37;95407.63;;;22.37;18.88
65359;BME280;52491;45.900;6.346;2023-02-11T03:17:04;95401.50;;;22.37;18.83
65359;BME280;52491;45.900;6.346;2023-02-11T03:19:38;95411.94;;;22.38;18.62
65359;BME280;52491;45.900;6.346;2023-02-11T03:22:48;95397.00;;;22.37;18.77
65359;BME280;52491;45.900;6.346;2023-02-11T03:25:15;95400.06;;;22.34;18.65
65359;BME280;52491;45.900;6.346;2023-02-11T03:28:21;95394.56;;;22.36;18.80
65359;BME280;52491;45.900;6.346;2023-02-11T03:30:48;95389.25;;;22.36;18.70
65359;BME280;52491;45.900;6.346;2023-02-11T03:33:24;95390.25;;;22.34;18.80
65359;BME280;52491;45.900;6.346;2023-02-11T03:36:08;95386.59;;;22.36;18.72
65359;BME280;52491;45.900;6.346;2023-02-11T03:38:40;95385.78;;;22.35;18.69
65359;BME280;52491;45.900;6.346;2023-02-11T03:41:09;95380.47;;;22.35;18.58
65359;BME280;52491;45.900;6.346;2023-02-11T03:43:41;95379.19;;;22.38;18.50
65359;BME280;52491;45.900;6.346;2023-02-11T03:46:08;95389.03;;;22.37;18.73
65359;BME280;52491;45.900;6.346;2023-02-11T03:48:38;95382.47;;;22.40;18.82
65359;BME280;52491;45.900;6.346;2023-02-11T03:51:06;95382.28;;;22.41;18.62
65359;BME280;52491;45.900;6.346;2023-02-11T03:53:36;95379.38;;;22.43;18.71
65359;BME280;52491;45.900;6.346;2023-02-11T03:56:06;95384.50;;;22.44;18.62
65359;BME280;52491;45.900;6.346;2023-02-11T03:58:33;95383.69;;;22.44;18.67
65359;BME280;52491;45.900;6.346;2023-02-11T04:01:00;95373.88;;;22.44;18.70
65359;BME280;52491;45.900;6.346;2023-02-11T04:03:27;95377.13;;;22.46;18.64
65359;BME280;52491;45.900;6.346;2023-02-11T04:05:53;95368.13;;;22.47;18.76
65359;BME280;52491;45.900;6.346;2023-02-11T04:08:19;95373.00;;;22.50;18.58
65359;BME280;52491;45.900;6.346;2023-02-11T04:10:45;95368.50;;;22.51;18.72
65359;BME280;52491;45.900;6.346;2023-02-11T04:13:11;95370.16;;;22.52;18.74
65359;BME280;52491;45.900;6.346;2023-02-11T04:15:37;95370.72;;;22.54;18.75
65359;BME280;52491;45.900;6.346;2023-02-11T04:18:02;95369.06;;;22.60;18.88
65359;BME280;52491;45.900;6.346;2023-02-11T04:20:28;95372.75;;;22.59;18.96
65359;BME280;52491;45.900;6.346;2023-02-11T04:22:54;95372.94;;;22.57;18.97
65359;BME280;52491;45.900;6.346;2023-02-11T04:25:20;95366.81;;;22.56;18.87
65359;BME280;52491;45.900;6.346;2023-02-11T04:27:45;95368.88;;;22.54;18.93
65359;BME280;52491;45.900;6.346;2023-02-11T04:30:11;95363.78;;;22.53;18.87
65359;BME280;52491;45.900;6.346;2023-02-11T04:32:37;95366.44;;;22.53;18.94
65359;BME280;52491;45.900;6.346;2023-02-11T04:35:03;95366.44;;;22.53;18.80
65359;BME280;52491;45.900;6.346;2023-02-11T04:37:29;95379.50;;;22.54;18.93
65359;BME280;52491;45.900;6.346;2023-02-11T04:39:54;95371.34;;;22.56;18.83
65359;BME280;52491;45.900;6.346;2023-02-11T04:42:22;95371.13;;;22.58;18.87
65359;BME280;52491;45.900;6.346;2023-02-11T04:44:47;95371.53;;;22.54;18.89
65359;BME280;52491;45.900;6.346;2023-02-11T04:47:13;95373.19;;;22.55;18.76
65359;BME280;52491;45.900;6.346;2023-02-11T04:49:40;95375.59;;;22.57;18.64
65359;BME280;52491;45.900;6.346;2023-02-11T04:52:07;95379.09;;;22.58;18.69
65359;BME280;52491;45.900;6.346;2023-02-11T04:54:32;95374.59;;;22.58;18.80
65359;BME280;52491;45.900;6.346;2023-02-11T04:56:58;95375.19;;;22.60;18.69
65359;BME280;52491;45.900;6.346;2023-02-11T04:59:24;95375.78;;;22.62;18.70
65359;BME280;52491;45.900;6.346;2023-02-11T05:01:49;95371.06;;;22.64;18.81
65359;BME280;52491;45.900;6.346;2023-02-11T05:04:15;95368.41;;;22.64;18.78
65359;BME280;52491;45.900;6.346;2023-02-11T05:06:41;95368.41;;;22.64;18.66
65359;BME280;52491;45.900;6.346;2023-02-11T05:09:08;95361.25;;;22.65;18.62
65359;BME280;52491;45.900;6.346;2023-02-11T05:11:34;95361.06;;;22.66;18.68
65359;BME280;52491;45.900;6.346;2023-02-11T05:14:01;95357.56;;;22.66;18.71
65359;BME280;52491;45.900;6.346;2023-02-11T05:16:26;95355.50;;;22.68;18.85
65359;BME280;52491;45.900;6.346;2023-02-11T05:18:52;95351.22;;;22.67;18.64
65359;BME280;52491;45.900;6.346;2023-02-11T05:21:20;95354.50;;;22.69;18.61
65359;BME280;52491;45.900;6.346;2023-02-11T05:23:46;95353.47;;;22.70;18.85
65359;BME280;52491;45.900;6.346;2023-02-11T05:26:12;95350.78;;;22.70;18.55
65359;BME280;52491;45.900;6.346;2023-02-11T05:28:38;95344.44;;;22.71;18.80
65359;BME280;52491;45.900;6.346;2023-02-11T05:31:04;95343.44;;;22.72;18.60
65359;BME280;52491;45.900;6.346;2023-02-11T05:33:30;95343.44;;;22.72;18.62
65359;BME280;52491;45.900;6.346;2023-02-11T05:36:00;95343.00;;;22.75;18.51
65359;BME280;52491;45.900;6.346;2023-02-11T05:38:26;95338.91;;;22.72;18.67
65359;BME280;52491;45.900;6.346;2023-02-11T05:40:52;95336.88;;;22.74;18.71
65359;BME280;52491;45.900;6.346;2023-02-11T05:43:18;95335.22;;;22.73;18.63
65359;BME280;52491;45.900;6.346;2023-02-11T05:45:44;95339.28;;;22.76;18.66
65359;BME280;52491;45.900;6.346;2023-02-11T05:48:09;95337.69;;;22.75;18.61
65359;BME280;52491;45.900;6.346;2023-02-11T05:50:35;95333.78;;;22.77;18.62
65359;BME280;52491;45.900;6.346;2023-02-11T05:53:00;95334.56;;;22.78;18.70
65359;BME280;52491;45.900;6.346;2023-02-11T05:55:26;95338.03;;;22.78;18.63
65359;BME280;52491;45.900;6.346;2023-02-11T05:57:52;95334.56;;;22.78;18.73
65359;BME280;52491;45.900;6.346;2023-02-11T06:00:17;95326.59;;;22.78;18.56
65359;BME280;52491;45.900;6.346;2023-02-11T06:02:43;95338.66;;;22.81;18.60
65359;BME280;52491;45.900;6.346;2023-02-11T06:05:09;95337.63;;;22.82;18.58
65359;BME280;52491;45.900;6.346;2023-02-11T06:07:34;95336.59;;;22.83;18.64
65359;BME280;52491;45.900;6.346;2023-02-11T06:10:00;95336.38;;;22.84;18.54
65359;BME280;52491;45.900;6.346;2023-02-11T06:12:26;95340.06;;;22.83;18.57
65359;BME280;52491;45.900;6.346;2023-02-11T06:14:52;95332.66;;;22.85;18.65
65359;BME280;52491;45.900;6.346;2023-02-11T06:17:18;95332.47;;;22.87;18.58
65359;BME280;52491;45.900;6.346;2023-02-11T06:19:44;95348.22;;;22.88;18.50
65359;BME280;52491;45.900;6.346;2023-02-11T06:22:09;95339.19;;;22.89;18.56
65359;BME280;52491;45.900;6.346;2023-02-11T06:24:35;95337.56;;;22.88;18.48
65359;BME280;52491;45.900;6.346;2023-02-11T06:27:03;95335.50;;;22.90;18.45
65359;BME280;52491;45.900;6.346;2023-02-11T06:29:29;95346.72;;;22.92;18.53
65359;BME280;52491;45.900;6.346;2023-02-11T06:31:55;95342.81;;;22.95;18.52
65359;BME280;52491;45.900;6.346;2023-02-11T06:34:21;95341.63;;;22.97;18.60
65359;BME280;52491;45.900;6.346;2023-02-11T06:36:46;95352.84;;;22.99;18.68
65359;BME280;52491;45.900;6.346;2023-02-11T06:39:13;95347.31;;;23.01;18.59
65359;BME280;52491;45.900;6.346;2023-02-11T06:41:38;95342.78;;;23.01;18.61
65359;BME280;52491;45.900;6.346;2023-02-11T06:44:05;95342.78;;;23.01;18.70
65359;BME280;52491;45.900;6.346;2023-02-11T06:46:30;95347.09;;;23.03;18.61
65359;BME280;52491;45.900;6.346;2023-02-11T06:48:56;95344.44;;;23.03;18.60
65359;BME280;52491;45.900;6.346;2023-02-11T06:51:22;95339.94;;;23.03;18.55
65359;BME280;52491;45.900;6.346;2023-02-11T06:53:47;95342.34;;;23.05;18.60
65359;BME280;52491;45.900;6.346;2023-02-11T06:56:16;95348.28;;;23.07;18.56
65359;BME280;52491;45.900;6.346;2023-02-11T06:58:42;95358.09;;;23.06;18.66
65359;BME280;52491;45.900;6.346;2023-02-11T07:01:10;95352.78;;;23.06;18.62
65359;BME280;52491;45.900;6.346;2023-02-11T07:03:38;95357.88;;;23.08;18.56
65359;BME280;52491;45.900;6.346;2023-02-11T07:06:06;95356.25;;;23.07;18.59
65359;BME280;52491;45.900;6.346;2023-02-11T07:08:36;95350.72;;;23.08;18.50
65359;BME280;52491;45.900;6.346;2023-02-11T07:11:23;95357.47;;;23.11;18.61
65359;BME280;52491;45.900;6.346;2023-02-11T07:13:49;95357.66;;;23.09;18.56
65359;BME280;52491;45.900;6.346;2023-02-11T07:16:16;95359.88;;;23.12;18.58
65359;BME280;52491;45.900;6.346;2023-02-11T07:18:43;95358.28;;;23.11;18.47
65359;BME280;52491;45.900;6.346;2023-02-11T07:21:11;95360.69;;;23.13;18.54
65359;BME280;52491;45.900;6.346;2023-02-11T07:23:37;95366.03;;;23.13;18.65
65359;BME280;52491;45.900;6.346;2023-02-11T07:26:10;95373.00;;;23.14;18.76
65359;BME280;52491;45.900;6.346;2023-02-11T07:28:37;95367.06;;;23.12;18.85
65359;BME280;52491;45.900;6.346;2023-02-11T07:31:12;95371.34;;;23.13;18.97
65359;BME280;52491;45.900;6.346;2023-02-11T07:33:38;95378.94;;;23.09;19.04
65359;BME280;52491;45.900;6.346;2023-02-11T07:36:04;95387.97;;;23.08;18.93
65359;BME280;52491;45.900;6.346;2023-02-11T07:38:32;95386.13;;;23.09;19.08
65359;BME280;52491;45.900;6.346;2023-02-11T07:41:02;95378.75;;;23.11;19.00
65359;BME280;52491;45.900;6.346;2023-02-11T07:43:28;95391.44;;;23.09;19.22
65359;BME280;52491;45.900;6.346;2023-02-11T07:45:54;95389.78;;;23.08;19.05
65359;BME280;52491;45.900;6.346;2023-02-11T07:48:20;95394.31;;;23.07;19.06
65359;BME280;52491;45.900;6.346;2023-02-11T07:50:46;95390.84;;;23.07;19.09
65359;BME280;52491;45.900;6.346;2023-02-11T07:53:11;95395.13;;;23.08;19.31
65359;BME280;52491;45.900;6.346;2023-02-11T07:55:37;95401.28;;;23.08;19.32
65359;BME280;52491;45.900;6.346;2023-02-11T07:58:04;95416.00;;;23.11;19.19
65359;BME280;52491;45.900;6.346;2023-02-11T08:00:30;95423.13;;;23.10;19.05
65359;BME280;52491;45.900;6.346;2023-02-11T08:02:56;95419.66;;;23.10;19.14
65359;BME280;52491;45.900;6.346;2023-02-11T08:05:22;95414.56;;;23.08;19.20
65359;BME280;52491;45.900;6.346;2023-02-11T08:07:51;95416.00;;;23.11;19.14
65359;BME280;52491;45.900;6.346;2023-02-11T08:10:17;95415.59;;;23.07;19.27
65359;BME280;52491;45.900;6.346;2023-02-11T08:12:43;95417.44;;;23.07;19.32
65359;BME280;52491;45.900;6.346;2023-02-11T08:15:09;95414.41;;;23.03;19.28
65359;BME280;52491;45.900;6.346;2023-02-11T08:17:35;95425.03;;;23.03;19.28
65359;BME280;52491;45.900;6.346;2023-02-11T08:20:02;95423.19;;;23.04;19.26
65359;BME280;52491;45.900;6.346;2023-02-11T08:22:31;95419.28;;;23.06;19.31
65359;BME280;52491;45.900;6.346;2023-02-11T08:24:56;95414.16;;;23.05;19.07
65359;BME280;52491;45.900;6.346;2023-02-11T08:27:23;95414.16;;;23.05;19.38
65359;BME280;52491;45.900;6.346;2023-02-11T08:29:51;95418.91;;;23.03;19.39
65359;BME280;52491;45.900;6.346;2023-02-11T08:32:17;95426.91;;;23.03;19.33
65359;BME280;52491;45.900;6.346;2023-02-11T08:34:42;95419.72;;;23.03;19.31
65359;BME280;52491;45.900;6.346;2023-02-11T08:41:59;95417.06;;;23.03;19.39
65359;BME280;52491;45.900;6.346;2023-02-11T08:44:24;95411.75;;;23.03;19.46
65359;BME280;52491;45.900;6.346;2023-02-11T08:46:51;95417.06;;;23.03;19.77
65359;BME280;52491;45.900;6.346;2023-02-11T08:49:17;95410.31;;;23.00;19.45
65359;BME280;52491;45.900;6.346;2023-02-11T08:51:43;95414.03;;;22.99;19.43
65359;BME280;52491;45.900;6.346;2023-02-11T08:54:08;95409.72;;;22.98;19.52
65359;BME280;52491;45.900;6.346;2023-02-11T08:56:36;95413.19;;;22.99;19.38
65359;BME280;52491;45.900;6.346;2023-02-11T08:59:03;95415.03;;;22.98;19.45
65359;BME280;52491;45.900;6.346;2023-02-11T09:01:30;95407.06;;;22.98;19.46
65359;BME280;52491;45.900;6.346;2023-02-11T09:03:57;95409.53;;;23.00;19.36
65359;BME280;52491;45.900;6.346;2023-02-11T09:06:24;95411.94;;;23.01;19.63
65359;BME280;52491;45.900;6.346;2023-02-11T09:08:52;95409.69;;;23.05;19.65
65359;BME280;52491;45.900;6.346;2023-02-11T09:11:21;95411.91;;;23.08;19.55
65359;BME280;52491;45.900;6.346;2023-02-11T09:13:49;95412.72;;;23.09;19.44
65359;BME280;52491;45.900;6.346;2023-02-11T09:16:20;95412.28;;;23.12;19.59
65359;BME280;52491;45.900;6.346;2023-02-11T09:18:47;95412.28;;;23.12;19.43
65359;BME280;52491;45.900;6.346;2023-02-11T09:21:13;95424.53;;;23.13;19.18
65359;BME280;52491;45.900;6.346;2023-02-11T09:23:39;95425.59;;;23.12;19.27
65359;BME280;52491;45.900;6.346;2023-02-11T09:26:12;95422.31;;;23.10;19.31
65359;BME280;52491;45.900;6.346;2023-02-11T09:28:39;95433.19;;;23.08;19.47
65359;BME280;52491;45.900;6.346;2023-02-11T09:31:09;95431.53;;;23.07;19.39
65359;BME280;52491;45.900;6.346;2023-02-11T09:33:38;95438.72;;;23.07;19.48
65359;BME280;52491;45.900;6.346;2023-02-11T09:36:05;95429.56;;;23.03;19.38
65359;BME280;52491;45.900;6.346;2023-02-11T09:38:31;95436.69;;;23.02;19.38
65359;BME280;52491;45.900;6.346;2023-02-11T09:40:57;95429.56;;;23.03;19.34
65359;BME280;52491;45.900;6.346;2023-02-11T09:43:35;95429.94;;;23.06;19.23
65359;BME280;52491;45.900;6.346;2023-02-11T09:46:08;95429.94;;;23.06;19.28
65359;BME280;52491;45.900;6.346;2023-02-11T09:48:40;95431.34;;;23.09;19.38
65359;BME280;52491;45.900;6.346;2023-02-11T09:51:19;95434.00;;;23.09;19.29
65359;BME280;52491;45.900;6.346;2023-02-11T09:53:51;95424.97;;;23.10;19.30
65359;BME280;52491;45.900;6.346;2023-02-11T09:56:23;95424.97;;;23.10;19.20
65359;BME280;52491;45.900;6.346;2023-02-11T09:58:49;95424.16;;;23.09;19.25
65359;BME280;52491;45.900;6.346;2023-02-11T10:01:38;95426.19;;;23.14;19.24
65359;BME280;52491;45.900;6.346;2023-02-11T10:06:55;95436.00;;;23.13;19.27
65359;BME280;52491;45.900;6.346;2023-02-11T10:09:47;95428.84;;;23.14;19.26
65359;BME280;52491;45.900;6.346;2023-02-11T10:12:51;95439.69;;;23.12;19.30
65359;BME280;52491;45.900;6.346;2023-02-11T10:18:15;95435.97;;;23.20;19.17
65359;BME280;52491;45.900;6.346;2023-02-11T10:21:06;95438.19;;;23.23;19.25
65359;BME280;52491;45.900;6.346;2023-02-11T10:23:38;95445.94;;;23.24;19.29
65359;BME280;52491;45.900;6.346;2023-02-11T10:26:15;95441.22;;;23.27;19.34
65359;BME280;52491;45.900;6.346;2023-02-11T10:28:43;95442.03;;;23.27;19.35
65359;BME280;52491;45.900;6.346;2023-02-11T10:31:19;95438.97;;;23.30;19.43
65359;BME280;52491;45.900;6.346;2023-02-11T10:34:02;95446.50;;;23.33;19.38
65359;BME280;52491;45.900;6.346;2023-02-11T10:36:32;95453.44;;;23.34;19.38
65359;BME280;52491;45.900;6.346;2023-02-11T10:38:59;95450.78;;;23.34;19.56
65359;BME280;52491;45.900;6.346;2023-02-11T10:41:31;95454.25;;;23.35;19.32
65359;BME280;52491;45.900;6.346;2023-02-11T10:43:59;95450.59;;;23.36;19.36
65359;BME280;52491;45.900;6.346;2023-02-11T10:46:30;95455.47;;;23.39;19.41
65359;BME280;52491;45.900;6.346;2023-02-11T10:48:57;95449.53;;;23.37;19.30
65359;BME280;52491;45.900;6.346;2023-02-11T10:51:25;95451.75;;;23.40;19.52
65359;BME280;52491;45.900;6.346;2023-02-11T10:56:36;95439.88;;;23.42;19.36
65359;BME280;52491;45.900;6.346;2023-02-11T11:02:01;95436.75;;;23.45;19.30
65359;BME280;52491;45.900;6.346;2023-02-11T11:07:08;95427.97;;;23.45;19.59
65359;BME280;52491;45.900;6.346;2023-02-11T11:09:44;95424.06;;;23.48;19.50
65359;BME280;52491;45.900;6.346;2023-02-11T11:12:47;95422.22;;;23.48;19.56
65359;BME280;52491;45.900;6.346;2023-02-11T11:15:15;95417.09;;;23.46;19.59
65359;BME280;52491;45.900;6.346;2023-02-11T11:17:44;95413.19;;;23.49;19.74
65359;BME280;52491;45.900;6.346;2023-02-11T11:20:30;95418.28;;;23.51;19.63
65359;BME280;52491;45.900;6.346;2023-02-11T11:23:20;95406.41;;;23.53;19.68
65359;BME280;52491;45.900;6.346;2023-02-11T11:26:05;95402.94;;;23.53;19.67
65359;BME280;52491;45.900;6.346;2023-02-11T11:28:54;95399.22;;;23.54;19.71
65359;BME280;52491;45.900;6.346;2023-02-11T11:33:50;95388.56;;;23.54;19.84
65359;BME280;52491;45.900;6.346;2023-02-11T11:36:22;95380.94;;;23.57;19.82
65359;BME280;52491;45.900;6.346;2023-02-11T11:38:55;95381.75;;;23.58;19.77
65359;BME280;52491;45.900;6.346;2023-02-11T11:41:32;95372.16;;;23.57;20.16
65359;BME280;52491;45.900;6.346;2023-02-11T11:44:44;95379.94;;;23.58;19.91
65359;BME280;52491;45.900;6.346;2023-02-11T11:55:21;95355.28;;;23.63;20.09
65359;BME280;52491;45.900;6.346;2023-02-11T11:57:48;95346.50;;;23.62;20.06
65359;BME280;52491;45.900;6.346;2023-02-11T12:00:17;95341.97;;;23.63;20.20
65359;BME280;52491;45.900;6.346;2023-02-11T12:02:54;95347.09;;;23.64;20.51
65359;BME280;52491;45.900;6.346;2023-02-11T12:05:27;95350.56;;;23.65;20.25
65359;BME280;52491;45.900;6.346;2023-02-11T12:08:11;95351.16;;;23.67;20.31
65359;BME280;52491;45.900;6.346;2023-02-11T12:11:06;95347.47;;;23.68;20.33
65359;BME280;52491;45.900;6.346;2023-02-11T12:13:42;95346.66;;;23.67;20.26
65359;BME280;52491;45.900;6.346;2023-02-11T12:16:22;95344.59;;;23.70;20.38
65359;BME280;52491;45.900;6.346;2023-02-11T12:22:06;95337.63;;;23.68;20.31
65359;BME280;52491;45.900;6.346;2023-02-11T12:30:33;95337.81;;;23.74;20.25
65359;BME280;52491;45.900;6.346;2023-02-11T12:35:55;95340.47;;;23.74;20.45
65359;BME280;52491;45.900;6.346;2023-02-11T12:44:56;95317.53;;;23.73;20.64
65359;BME280;52491;45.900;6.346;2023-02-11T12:53:25;95308.88;;;23.77;21.20
65359;BME280;52491;45.900;6.346;2023-02-11T12:56:04;95298.00;;;23.79;21.20
65359;BME280;52491;45.900;6.346;2023-02-11T12:58:30;95297.41;;;23.77;20.80
65359;BME280;52491;45.900;6.346;2023-02-11T13:01:23;95287.00;;;23.75;19.80
65359;BME280;52491;45.900;6.346;2023-02-11T13:03:55;95283.34;;;23.70;20.27
65359;BME280;52491;45.900;6.346;2023-02-11T13:06:51;95277.38;;;23.74;20.35
65359;BME280;52491;45.900;6.346;2023-02-11T13:09:29;95273.22;;;23.78;20.53
65359;BME280;52491;45.900;6.346;2023-02-11T13:11:58;95266.84;;;23.79;20.70
65359;BME280;52491;45.900;6.346;2023-02-11T13:14:46;95266.41;;;23.82;20.84
65359;BME280;52491;45.900;6.346;2023-02-11T13:17:18;95261.44;;;23.86;20.68
65359;BME280;52491;45.900;6.346;2023-02-11T13:19:53;95254.03;;;23.88;20.66
65359;BME280;52491;45.900;6.346;2023-02-11T13:22:26;95247.91;;;23.87;20.90
65359;BME280;52491;45.900;6.346;2023-02-11T13:25:02;95241.91;;;23.92;20.83
65359;BME280;52491;45.900;6.346;2023-02-11T13:30:26;95237.38;;;23.93;20.65
65359;BME280;52491;45.900;6.346;2023-02-11T13:35:33;95229.16;;;23.94;20.78
65359;BME280;52491;45.900;6.346;2023-02-11T13:38:05;95225.47;;;23.95;20.82
65359;BME280;52491;45.900;6.346;2023-02-11T13:40:39;95228.13;;;23.95;20.89
65359;BME280;52491;45.900;6.346;2023-02-11T13:43:21;95221.53;;;23.98;20.88
65359;BME280;52491;45.900;6.346;2023-02-11T13:45:57;95220.50;;;23.99;20.79
65359;BME280;52491;45.900;6.346;2023-02-11T13:48:34;95215.97;;;23.99;20.85
65359;BME280;52491;45.900;6.346;2023-02-11T13:51:13;95211.25;;;24.01;20.75
65359;BME280;52491;45.900;6.346;2023-02-11T13:59:00;95207.53;;;24.02;21.10
65359;BME280;52491;45.900;6.346;2023-02-11T14:02:02;95208.94;;;24.05;20.94
65359;BME280;52491;45.900;6.346;2023-02-11T14:11:06;95202.56;;;24.06;21.24
65359;BME280;52491;45.900;6.346;2023-02-11T14:13:59;95202.56;;;24.06;20.97
65359;BME280;52491;45.900;6.346;2023-02-11T14:16:22;95209.28;;;24.08;21.07
65359;BME280;52491;45.900;6.346;2023-02-11T14:21:39;95209.88;;;24.10;21.10
65359;BME280;52491;45.900;6.346;2023-02-11T14:27:06;95207.00;;;24.12;21.07
65359;BME280;52491;45.900;6.346;2023-02-11T14:38:33;95198.53;;;24.15;21.26
65359;BME280;52491;45.900;6.346;2023-02-11T14:41:18;95195.63;;;24.17;21.03
65359;BME280;52491;45.900;6.346;2023-02-11T14:44:03;95192.97;;;24.17;20.93
65359;BME280;52491;45.900;6.346;2023-02-11T14:46:31;95198.28;;;24.17;21.14
65359;BME280;52491;45.900;6.346;2023-02-11T14:49:00;95198.88;;;24.19;21.08
65359;BME280;52491;45.900;6.346;2023-02-11T14:51:34;95200.50;;;24.20;21.09
65359;BME280;52491;45.900;6.346;2023-02-11T14:54:10;95205.38;;;24.23;20.91
65359;BME280;52491;45.900;6.346;2023-02-11T14:56:39;95199.47;;;24.21;20.99
65359;BME280;52491;45.900;6.346;2023-02-11T14:59:17;95210.72;;;24.23;21.03